Terminal Aerodrome Forecast
Issued by NWS Norman, OK

Home | Current Version | Previous Version | Text Only | Print | Product List | Glossary On
Versions: 1 2 3 4 5 6 7 8 9 10 11 12 13 14 15 16 17 18 19 20 21 22 23 24 25 26
000
FTUS44 KOUN 271126
TAFOKC
TAF
KOKC 271126Z 2712/2812 VRB05KT P6SM SCT100 SCT250
      TEMPO 2712/2714 5SM BR BKN040
     FM271600 15006KT P6SM SCT040 SCT150=

USA.gov is the U.S. government's official web portal to all federal, state and local government web resources and services.